ビサウ の空港の天気 - METARとTAF

オスヴァルド・ヴィエイラ国際空港 ( GGOV / OXB ) - ギニアビサウ ビサウ
飛行場実況気象(Metar)
観測時間12/01 23:00 GMT (12/01 23:00 UTC)
風向・風速不定 1m/s
視程10km以上
天気現象
なし
気温23℃
湿度83%
気圧1012hPa
METARGGOV 012300Z VRB02KT CAVOK 23/20 Q1012 NOSIG
過去の天気等 Google飛行場航空写真 Wunderground天気予報

過去48時間のMETAR

飛行場予報(TAF)
発表時間: 12/01 23:00 GMT (12/01 23:00 UTC)
予報対象時間: 2日0時 GMT ~ 3日0時 GMT
風向・風速北 3m/s
視程10km以上
なし
TAF GGOV 012300Z 0200/0224 36005KT CAVOK